createdAt,value
2023-02-13T00:01:11.911Z,53.57
2023-02-13T00:04:16.082Z,55.22
2023-02-13T00:07:38.456Z,56.47
2023-02-13T00:10:45.402Z,55.30
2023-02-13T00:13:49.781Z,54.25
2023-02-13T00:16:53.565Z,54.48
2023-02-13T00:19:57.985Z,53.68
2023-02-13T00:23:04.824Z,53.82
2023-02-13T00:26:12.875Z,52.57
2023-02-13T00:29:21.138Z,53.81
2023-02-13T00:32:25.728Z,54.78
2023-02-13T00:35:34.121Z,54.82
2023-02-13T00:38:40.037Z,54.25
2023-02-13T00:41:43.967Z,54.95
2023-02-13T00:44:48.179Z,57.70
2023-02-13T00:47:52.630Z,54.06
2023-02-13T00:50:57.978Z,53.69
2023-02-13T00:54:02.717Z,52.52
2023-02-13T00:57:07.041Z,51.54
2023-02-13T01:00:12.885Z,50.06
2023-02-13T01:03:22.270Z,50.25
2023-02-13T01:06:27.162Z,50.32
2023-02-13T01:09:31.870Z,48.43
2023-02-13T01:12:36.705Z,44.39
2023-02-13T01:15:42.708Z,43.92
2023-02-13T01:18:47.090Z,44.20
2023-02-13T01:21:51.468Z,45.11
2023-02-13T01:24:56.143Z,43.10
2023-02-13T01:28:00.691Z,42.52
2023-02-13T01:31:04.897Z,43.01
2023-02-13T01:34:09.276Z,43.14
2023-02-13T01:37:14.242Z,42.82
2023-02-13T01:40:18.897Z,43.17
2023-02-13T01:43:26.020Z,40.53
2023-02-13T01:46:44.391Z,39.63
2023-02-13T01:49:49.996Z,39.82
2023-02-13T01:53:08.348Z,38.60
2023-02-13T01:56:36.627Z,38.29
2023-02-13T01:59:56.393Z,39.00
2023-02-13T02:03:07.230Z,39.61
2023-02-13T02:06:18.234Z,39.56
2023-02-13T02:09:28.521Z,39.08
2023-02-13T02:16:19.284Z,38.17
2023-02-13T02:19:36.576Z,37.89
2023-02-13T02:23:14.923Z,35.92
2023-02-13T02:26:46.547Z,36.30
2023-02-13T02:30:15.654Z,37.84
2023-02-13T02:33:46.866Z,38.31
2023-02-13T02:37:06.455Z,39.49
2023-02-13T02:40:40.987Z,37.91
2023-02-13T02:44:23.844Z,37.61
2023-02-13T02:48:16.077Z,37.36
2023-02-13T02:51:34.740Z,38.59
2023-02-13T02:55:09.197Z,41.06
2023-02-13T02:58:46.053Z,40.46
2023-02-13T03:02:13.144Z,39.34
2023-02-13T03:05:47.265Z,39.12
2023-02-13T03:09:20.169Z,40.37
2023-02-13T03:12:46.881Z,39.80
2023-02-13T03:16:14.800Z,39.60
2023-02-13T03:20:17.375Z,40.79
2023-02-13T03:23:40.950Z,39.77
2023-02-13T03:27:49.075Z,40.56
2023-02-13T03:31:03.568Z,40.94
2023-02-13T03:34:21.404Z,40.50
2023-02-13T03:37:50.194Z,39.27
2023-02-13T03:41:20.146Z,42.18
2023-02-13T03:45:12.876Z,39.79
2023-02-13T03:48:40.894Z,38.57
2023-02-13T03:52:11.802Z,39.95
2023-02-13T03:55:42.200Z,37.85
2023-02-13T03:59:10.714Z,40.45
2023-02-13T04:02:20.996Z,39.48
2023-02-13T04:05:29.710Z,38.85
2023-02-13T04:08:34.109Z,40.35
2023-02-13T04:11:52.753Z,39.63
2023-02-13T04:15:04.702Z,41.19
2023-02-13T04:18:12.748Z,39.59
2023-02-13T04:21:20.220Z,40.47
2023-02-13T04:24:25.067Z,40.22
2023-02-13T04:27:31.558Z,40.49
2023-02-13T04:30:36.044Z,40.06
2023-02-13T04:33:40.089Z,39.98
2023-02-13T04:36:44.536Z,40.78
2023-02-13T04:39:51.133Z,40.92
2023-02-13T04:42:55.436Z,41.25
2023-02-13T04:45:59.793Z,40.01
2023-02-13T04:49:04.211Z,41.58
2023-02-13T04:52:08.627Z,39.99
2023-02-13T04:55:13.584Z,40.67
2023-02-13T04:58:17.903Z,40.09
2023-02-13T05:01:24.034Z,39.91
2023-02-13T05:04:29.711Z,38.44
2023-02-13T05:07:33.735Z,40.11
2023-02-13T05:10:38.527Z,39.83
2023-02-13T05:13:44.050Z,38.92
2023-02-13T05:16:48.803Z,39.45
2023-02-13T05:19:57.562Z,40.43
2023-02-13T05:23:19.937Z,39.79
2023-02-13T05:26:24.369Z,39.69
2023-02-13T05:29:31.725Z,40.19
2023-02-13T05:32:36.338Z,39.77
2023-02-13T05:35:40.694Z,39.69
2023-02-13T05:38:45.410Z,39.79
2023-02-13T05:41:50.254Z,40.71
2023-02-13T05:44:54.599Z,40.01
2023-02-13T05:47:58.916Z,40.11
2023-02-13T05:51:03.893Z,37.69
2023-02-13T05:54:08.351Z,38.25
2023-02-13T05:57:12.920Z,38.33
2023-02-13T06:00:17.714Z,38.54
2023-02-13T06:03:21.829Z,38.42
2023-02-13T06:06:26.297Z,38.79
2023-02-13T06:09:30.368Z,39.24
2023-02-13T06:12:34.346Z,39.09
2023-02-13T06:15:38.647Z,40.15
2023-02-13T06:18:42.565Z,39.53
2023-02-13T06:21:46.460Z,39.95
2023-02-13T06:24:50.318Z,40.45
2023-02-13T06:27:56.560Z,40.74
2023-02-13T06:31:01.562Z,39.87
2023-02-13T06:34:05.934Z,39.34
2023-02-13T06:37:09.783Z,38.64
2023-02-13T06:40:15.559Z,39.16
2023-02-13T06:43:19.795Z,36.94
2023-02-13T06:46:24.147Z,38.48
2023-02-13T06:49:29.757Z,38.80
2023-02-13T06:52:33.413Z,36.07
2023-02-13T06:55:40.665Z,39.22
2023-02-13T06:58:49.125Z,38.91
2023-02-13T07:01:53.631Z,38.00
2023-02-13T07:04:57.592Z,37.66
2023-02-13T07:08:01.943Z,38.59
2023-02-13T07:11:06.086Z,38.89
2023-02-13T07:14:11.165Z,38.67
2023-02-13T07:17:15.612Z,39.32
2023-02-13T07:20:19.826Z,39.45
2023-02-13T07:23:23.684Z,38.94
2023-02-13T07:26:28.990Z,39.68
2023-02-13T07:29:33.497Z,39.57
2023-02-13T07:32:37.976Z,39.79
2023-02-13T07:35:51.438Z,38.96
2023-02-13T07:38:55.947Z,39.50
2023-02-13T07:42:00.323Z,39.12
2023-02-13T07:45:07.078Z,39.67
2023-02-13T07:48:11.415Z,38.80
2023-02-13T07:51:16.811Z,40.02
2023-02-13T07:54:20.877Z,40.10
2023-02-13T07:57:25.070Z,39.45
2023-02-13T08:00:30.045Z,39.25
2023-02-13T08:03:34.102Z,39.43
2023-02-13T08:06:41.290Z,40.19
2023-02-13T08:10:05.407Z,39.80
2023-02-13T08:13:11.241Z,40.41
2023-02-13T08:16:15.858Z,40.12
2023-02-13T08:19:20.679Z,40.32
2023-02-13T08:22:25.145Z,40.43
2023-02-13T08:25:29.416Z,41.60
2023-02-13T08:28:33.854Z,42.66
2023-02-13T08:32:16.871Z,43.31
2023-02-13T08:35:21.422Z,43.22
2023-02-13T08:38:26.381Z,43.78
2023-02-13T08:41:30.850Z,43.52
2023-02-13T08:44:35.457Z,43.08
2023-02-13T08:47:40.686Z,43.80
2023-02-13T08:50:44.861Z,44.25
2023-02-13T08:53:49.303Z,44.49
2023-02-13T08:56:53.665Z,44.24
2023-02-13T08:59:58.465Z,43.87
2023-02-13T09:03:09.414Z,44.38
2023-02-13T09:06:14.658Z,44.90
2023-02-13T09:09:19.453Z,44.45
2023-02-13T09:12:24.979Z,43.69
2023-02-13T09:15:32.497Z,43.70
2023-02-13T09:18:36.512Z,43.29
2023-02-13T09:21:43.638Z,43.79
2023-02-13T09:24:48.200Z,44.78
2023-02-13T09:27:52.572Z,45.59
2023-02-13T09:30:57.116Z,44.62
2023-02-13T09:34:01.748Z,44.88
2023-02-13T09:37:05.741Z,43.68
2023-02-13T09:40:53.391Z,45.38
2023-02-13T09:44:44.892Z,47.00
2023-02-13T09:51:21.623Z,46.85
2023-02-13T09:54:27.933Z,46.59
2023-02-13T09:57:57.032Z,46.69
2023-02-13T10:01:04.386Z,45.47
2023-02-13T10:04:35.179Z,45.86
2023-02-13T10:07:55.191Z,46.11
2023-02-13T10:11:13.380Z,46.60
2023-02-13T10:14:32.686Z,46.58
2023-02-13T10:17:43.351Z,47.13
2023-02-13T10:20:54.415Z,46.42
2023-02-13T10:24:27.358Z,45.75
2023-02-13T10:28:00.368Z,45.84
2023-02-13T10:31:11.092Z,46.51
2023-02-13T10:34:22.472Z,47.14
2023-02-13T10:37:29.556Z,47.38
2023-02-13T10:40:41.717Z,48.24
2023-02-13T10:44:11.769Z,48.20
2023-02-13T10:47:25.007Z,48.23
2023-02-13T10:50:52.753Z,47.30
2023-02-13T10:54:06.026Z,47.45
2023-02-13T10:57:23.706Z,47.81
2023-02-13T11:01:00.030Z,49.09
2023-02-13T11:04:15.904Z,50.13
2023-02-13T11:07:23.086Z,49.17
2023-02-13T11:10:29.206Z,48.82
2023-02-13T11:13:35.493Z,48.50
2023-02-13T11:16:52.600Z,47.64
2023-02-13T11:20:01.892Z,49.01
2023-02-13T11:23:33.718Z,48.82
2023-02-13T11:26:41.880Z,48.92
2023-02-13T11:30:03.768Z,50.33
2023-02-13T11:33:24.258Z,49.45
2023-02-13T11:36:34.359Z,46.82
2023-02-13T11:39:39.428Z,47.84
2023-02-13T11:42:45.132Z,46.38
2023-02-13T11:46:01.543Z,46.67
2023-02-13T11:49:07.246Z,46.20
2023-02-13T11:52:48.617Z,47.18
2023-02-13T11:56:05.873Z,47.47
2023-02-13T11:59:15.625Z,47.51
2023-02-13T12:02:48.373Z,48.52
2023-02-13T12:06:09.828Z,48.06
2023-02-13T12:09:17.599Z,47.95
2023-02-13T12:12:34.212Z,47.56
2023-02-13T12:15:43.306Z,48.56
2023-02-13T12:18:57.853Z,48.28
2023-02-13T12:22:11.852Z,48.49
2023-02-13T12:25:26.195Z,49.22
2023-02-13T12:28:59.637Z,48.80
2023-02-13T12:32:16.023Z,48.92
2023-02-13T12:35:47.087Z,49.62
2023-02-13T12:39:15.627Z,49.00
2023-02-13T12:42:49.958Z,50.24
2023-02-13T12:46:05.353Z,50.28
2023-02-13T12:49:33.293Z,50.79
2023-02-13T12:52:56.860Z,52.30
2023-02-13T12:56:29.100Z,53.15
2023-02-13T13:00:05.324Z,53.17
2023-02-13T13:03:26.270Z,51.91
2023-02-13T13:06:57.977Z,51.71
2023-02-13T13:10:22.096Z,48.52
2023-02-13T13:13:32.802Z,49.47
2023-02-13T13:16:45.591Z,50.30
2023-02-13T13:20:10.267Z,50.94
2023-02-13T13:23:23.512Z,50.17
2023-02-13T13:26:45.899Z,49.42
2023-02-13T13:30:02.660Z,48.56
2023-02-13T13:33:27.337Z,51.23
2023-02-13T13:36:52.483Z,51.70
2023-02-13T13:40:05.052Z,52.23
2023-02-13T13:43:32.947Z,50.42
2023-02-13T13:46:56.499Z,50.44
2023-02-13T13:50:06.831Z,49.73
2023-02-13T13:53:16.946Z,48.36
2023-02-13T13:56:23.467Z,48.86
2023-02-13T13:59:40.655Z,49.29
2023-02-13T14:03:12.004Z,50.68
2023-02-13T14:06:20.598Z,51.67
2023-02-13T14:09:28.060Z,52.29
2023-02-13T14:12:32.126Z,51.94
2023-02-13T14:15:38.875Z,53.08
2023-02-13T14:18:48.940Z,54.13
2023-02-13T14:21:56.177Z,52.32
2023-02-13T14:25:02.826Z,52.06
2023-02-13T14:28:08.322Z,52.91
2023-02-13T14:31:32.938Z,53.89
2023-02-13T14:34:40.952Z,53.59
2023-02-13T14:38:00.792Z,55.17
2023-02-13T14:41:08.082Z,55.24
2023-02-13T14:44:37.153Z,54.43
2023-02-13T14:47:46.330Z,54.77
2023-02-13T14:50:57.665Z,53.12
2023-02-13T14:54:20.169Z,53.78
2023-02-13T14:57:37.760Z,54.20
2023-02-13T15:00:53.819Z,53.97
2023-02-13T15:04:16.919Z,54.61
2023-02-13T15:07:31.786Z,54.00
2023-02-13T15:10:47.882Z,54.18
2023-02-13T15:13:54.864Z,54.72
2023-02-13T15:17:08.184Z,54.16
2023-02-13T15:20:26.036Z,54.33
2023-02-13T15:23:33.002Z,55.55
2023-02-13T15:26:37.222Z,54.59
2023-02-13T15:29:56.173Z,54.77
2023-02-13T15:33:02.251Z,54.86
2023-02-13T15:36:08.087Z,54.98
2023-02-13T15:39:24.511Z,55.41
2023-02-13T15:42:28.924Z,55.91
2023-02-13T15:45:33.993Z,55.53
2023-02-13T15:48:38.513Z,54.39
2023-02-13T15:51:43.048Z,54.05
2023-02-13T15:54:54.930Z,52.99
2023-02-13T15:58:02.411Z,52.54
2023-02-13T16:01:09.124Z,50.90
2023-02-13T16:04:46.788Z,51.30
2023-02-13T16:07:53.580Z,51.86
2023-02-13T16:11:29.604Z,50.54
2023-02-13T16:14:38.656Z,52.68
2023-02-13T16:17:46.712Z,52.99
2023-02-13T16:20:56.706Z,53.74
2023-02-13T16:24:07.803Z,53.90
2023-02-13T16:27:17.033Z,54.51
2023-02-13T16:30:25.947Z,54.49
2023-02-13T16:33:31.209Z,55.75
2023-02-13T16:36:36.021Z,55.01
2023-02-13T16:39:40.636Z,56.21
2023-02-13T16:42:45.264Z,56.07
2023-02-13T16:45:49.773Z,54.83
2023-02-13T16:49:02.372Z,53.27
2023-02-13T16:52:17.531Z,54.32
2023-02-13T16:55:22.895Z,52.93
2023-02-13T16:58:28.220Z,52.29
2023-02-13T17:01:32.129Z,52.84
2023-02-13T17:04:37.487Z,53.50
2023-02-13T17:11:50.724Z,55.14
2023-02-13T17:14:55.157Z,55.71
2023-02-13T17:18:00.714Z,56.12
2023-02-13T17:21:04.890Z,56.49
2023-02-13T17:24:13.181Z,56.87
2023-02-13T17:27:17.591Z,56.99
2023-02-13T17:30:27.242Z,56.74
2023-02-13T17:33:35.112Z,57.10
2023-02-13T17:36:39.260Z,56.55
2023-02-13T17:39:43.883Z,55.85
2023-02-13T17:42:53.656Z,56.67
2023-02-13T17:45:59.974Z,55.82
2023-02-13T17:49:05.372Z,56.08
2023-02-13T17:52:11.885Z,57.47
2023-02-13T17:55:25.579Z,57.01
2023-02-13T17:58:29.865Z,56.84
2023-02-13T18:01:34.504Z,56.49
2023-02-13T18:04:38.862Z,56.67
2023-02-13T18:07:44.079Z,55.88
2023-02-13T18:10:48.576Z,55.54
2023-02-13T18:13:56.380Z,55.90
2023-02-13T18:17:01.371Z,56.06
2023-02-13T18:20:10.564Z,56.16
2023-02-13T18:23:15.030Z,56.34
2023-02-13T18:26:19.332Z,57.10
2023-02-13T18:29:23.689Z,56.73
2023-02-13T18:32:27.864Z,55.94
2023-02-13T18:35:34.186Z,55.18
2023-02-13T18:38:38.061Z,54.95
2023-02-13T18:41:42.786Z,54.66
2023-02-13T18:44:46.875Z,55.99
2023-02-13T18:47:51.008Z,56.40
2023-02-13T18:50:55.554Z,56.61
2023-02-13T18:54:00.701Z,56.35
2023-02-13T18:57:04.904Z,55.40
2023-02-13T19:00:10.151Z,56.07
2023-02-13T19:03:14.096Z,56.98
2023-02-13T19:06:22.037Z,56.83
2023-02-13T19:09:26.576Z,56.59
2023-02-13T19:12:31.072Z,56.55
2023-02-13T19:15:44.670Z,55.51
2023-02-13T19:18:58.719Z,55.91
2023-02-13T19:22:04.733Z,55.12
2023-02-13T19:25:09.324Z,54.00
2023-02-13T19:28:13.450Z,53.94
2023-02-13T19:31:25.707Z,54.43
2023-02-13T19:34:33.179Z,55.37
2023-02-13T19:37:46.225Z,55.03
2023-02-13T19:40:56.255Z,54.57
2023-02-13T19:44:01.871Z,54.95
2023-02-13T19:47:06.352Z,55.54
2023-02-13T19:50:13.416Z,55.87
2023-02-13T19:53:17.924Z,57.03
2023-02-13T19:56:22.459Z,56.20
2023-02-13T19:59:30.132Z,55.52
2023-02-13T20:02:45.839Z,55.81
2023-02-13T20:05:50.229Z,54.89
2023-02-13T20:09:10.125Z,54.93
2023-02-13T20:12:17.940Z,54.76
2023-02-13T20:15:25.978Z,54.96
2023-02-13T20:18:30.275Z,54.78
2023-02-13T20:21:35.328Z,54.39
2023-02-13T20:24:39.867Z,55.01
2023-02-13T20:27:44.279Z,55.31
2023-02-13T20:30:48.593Z,55.04
2023-02-13T20:33:53.781Z,56.90
2023-02-13T20:37:01.013Z,57.61
2023-02-13T20:40:06.305Z,58.70
2023-02-13T20:43:10.356Z,59.52
2023-02-13T20:46:19.203Z,59.61
2023-02-13T20:49:23.089Z,59.25
2023-02-13T20:52:27.466Z,57.58
2023-02-13T20:55:32.967Z,56.57
2023-02-13T20:58:37.707Z,56.11
2023-02-13T21:01:42.340Z,55.16
2023-02-13T21:04:46.920Z,56.81
2023-02-13T21:07:51.317Z,57.94
2023-02-13T21:10:55.552Z,58.65
2023-02-13T21:14:00.236Z,57.63
2023-02-13T21:17:04.715Z,56.53
2023-02-13T21:25:27.630Z,57.27
2023-02-13T21:28:31.752Z,58.81
2023-02-13T21:31:39.036Z,59.98
2023-02-13T21:34:44.160Z,60.07
2023-02-13T21:37:48.439Z,59.65
2023-02-13T21:40:52.805Z,59.67
2023-02-13T21:43:57.124Z,59.97
2023-02-13T21:47:01.751Z,60.36
2023-02-13T21:50:09.408Z,60.59
2023-02-13T21:53:13.741Z,60.66
2023-02-13T21:56:20.690Z,58.98
2023-02-13T21:59:25.117Z,59.46
2023-02-13T22:02:30.214Z,60.18
2023-02-13T22:05:34.584Z,59.67
2023-02-13T22:08:39.056Z,59.52
2023-02-13T22:11:44.277Z,59.66
2023-02-13T22:14:48.648Z,60.32
2023-02-13T22:17:57.063Z,60.61
2023-02-13T22:21:14.262Z,60.26
2023-02-13T22:24:56.305Z,60.31
2023-02-13T22:28:53.899Z,62.46
2023-02-13T22:32:13.067Z,61.84
2023-02-13T22:35:21.750Z,61.99
2023-02-13T22:38:28.383Z,60.78
2023-02-13T22:41:43.153Z,60.78
2023-02-13T22:44:47.509Z,61.30
2023-02-13T22:47:54.432Z,60.89
2023-02-13T22:51:08.123Z,60.43
2023-02-13T22:54:12.585Z,59.21
2023-02-13T22:57:18.271Z,58.78
2023-02-13T23:00:24.403Z,58.87
2023-02-13T23:03:29.348Z,58.59
2023-02-13T23:06:33.756Z,57.73
2023-02-13T23:09:46.068Z,57.01
2023-02-13T23:12:54.968Z,57.93
2023-02-13T23:15:59.305Z,58.12
2023-02-13T23:19:03.621Z,58.73
2023-02-13T23:22:29.831Z,60.12
2023-02-13T23:25:34.116Z,61.63
2023-02-13T23:28:38.478Z,60.74
2023-02-13T23:31:43.314Z,60.91
2023-02-13T23:34:47.724Z,60.52
2023-02-13T23:37:52.168Z,60.71
2023-02-13T23:40:56.812Z,60.48
2023-02-13T23:44:01.293Z,59.35
2023-02-13T23:47:05.932Z,59.33
2023-02-13T23:50:13.213Z,58.79
2023-02-13T23:53:17.562Z,58.48
2023-02-13T23:56:26.112Z,59.37
2023-02-13T23:59:30.623Z,57.86
